sensor_id;sensor_type;location;lat;lon;timestamp;pressure;altitude;pressure_sealevel;temperature;humidity
50484;BME280;36409;52.168;20.878;2022-12-18T00:00:46;101836.67;;;-5.94;81.63
50484;BME280;36409;52.168;20.878;2022-12-18T00:03:37;101835.91;;;-5.93;81.73
50484;BME280;36409;52.168;20.878;2022-12-18T00:06:07;101837.68;;;-5.92;81.71
50484;BME280;36409;52.168;20.878;2022-12-18T00:08:37;101842.77;;;-5.92;81.55
50484;BME280;36409;52.168;20.878;2022-12-18T00:11:07;101847.95;;;-5.91;82.02
50484;BME280;36409;52.168;20.878;2022-12-18T00:13:38;101854.83;;;-5.90;81.67
50484;BME280;36409;52.168;20.878;2022-12-18T00:16:11;101855.83;;;-5.87;81.83
50484;BME280;36409;52.168;20.878;2022-12-18T00:18:42;101845.80;;;-5.86;81.48
50484;BME280;36409;52.168;20.878;2022-12-18T00:21:15;101853.53;;;-5.84;81.81
50484;BME280;36409;52.168;20.878;2022-12-18T00:23:45;101858.86;;;-5.81;81.77
50484;BME280;36409;52.168;20.878;2022-12-18T00:26:19;101864.05;;;-5.80;81.40
50484;BME280;36409;52.168;20.878;2022-12-18T00:28:51;101860.84;;;-5.77;81.79
50484;BME280;36409;52.168;20.878;2022-12-18T00:31:23;101861.86;;;-5.75;81.77
50484;BME280;36409;52.168;20.878;2022-12-18T00:33:55;101858.65;;;-5.72;81.65
50484;BME280;36409;52.168;20.878;2022-12-18T00:36:26;101861.33;;;-5.71;81.76
50484;BME280;36409;52.168;20.878;2022-12-18T00:38:57;101871.61;;;-5.69;81.41
50484;BME280;36409;52.168;20.878;2022-12-18T00:41:27;101875.16;;;-5.67;81.57
50484;BME280;36409;52.168;20.878;2022-12-18T00:44:17;101885.45;;;-5.66;81.77
50484;BME280;36409;52.168;20.878;2022-12-18T00:46:52;101882.13;;;-5.65;81.46
50484;BME280;36409;52.168;20.878;2022-12-18T00:49:21;101888.23;;;-5.63;81.74
50484;BME280;36409;52.168;20.878;2022-12-18T00:51:51;101890.11;;;-5.60;81.73
50484;BME280;36409;52.168;20.878;2022-12-18T00:54:20;101887.70;;;-5.59;81.97
50484;BME280;36409;52.168;20.878;2022-12-18T00:56:49;101894.58;;;-5.57;81.97
50484;BME280;36409;52.168;20.878;2022-12-18T00:59:19;101893.91;;;-5.55;81.84
50484;BME280;36409;52.168;20.878;2022-12-18T01:01:48;101890.59;;;-5.54;81.82
50484;BME280;36409;52.168;20.878;2022-12-18T01:04:21;101902.55;;;-5.53;81.92
50484;BME280;36409;52.168;20.878;2022-12-18T01:06:50;101898.34;;;-5.52;81.93
50484;BME280;36409;52.168;20.878;2022-12-18T01:09:20;101897.67;;;-5.50;81.72
50484;BME280;36409;52.168;20.878;2022-12-18T01:11:49;101907.84;;;-5.50;81.73
50484;BME280;36409;52.168;20.878;2022-12-18T01:14:18;101913.84;;;-5.49;81.93
50484;BME280;36409;52.168;20.878;2022-12-18T01:16:52;101913.08;;;-5.48;81.88
50484;BME280;36409;52.168;20.878;2022-12-18T01:19:21;101914.86;;;-5.47;81.60
50484;BME280;36409;52.168;20.878;2022-12-18T01:21:50;101920.92;;;-5.45;81.80
50484;BME280;36409;52.168;20.878;2022-12-18T01:24:19;101915.97;;;-5.44;81.60
50484;BME280;36409;52.168;20.878;2022-12-18T01:26:48;101918.52;;;-5.44;81.53
50484;BME280;36409;52.168;20.878;2022-12-18T01:29:17;101922.83;;;-5.43;81.85
50484;BME280;36409;52.168;20.878;2022-12-18T01:31:54;101921.16;;;-5.42;81.96
50484;BME280;36409;52.168;20.878;2022-12-18T01:34:25;101933.12;;;-5.41;81.74
50484;BME280;36409;52.168;20.878;2022-12-18T01:36:54;101933.89;;;-5.42;81.50
50484;BME280;36409;52.168;20.878;2022-12-18T01:39:24;101941.52;;;-5.42;81.98
50484;BME280;36409;52.168;20.878;2022-12-18T01:41:53;101936.44;;;-5.42;81.72
50484;BME280;36409;52.168;20.878;2022-12-18T01:47:40;101937.20;;;-5.43;81.50
50484;BME280;36409;52.168;20.878;2022-12-18T01:50:17;101949.83;;;-5.45;81.71
50484;BME280;36409;52.168;20.878;2022-12-18T01:52:48;101945.50;;;-5.46;81.78
50484;BME280;36409;52.168;20.878;2022-12-18T01:55:20;101949.72;;;-5.46;81.64
50484;BME280;36409;52.168;20.878;2022-12-18T01:57:54;101957.22;;;-5.48;81.63
50484;BME280;36409;52.168;20.878;2022-12-18T02:00:24;101967.54;;;-5.46;81.58
50484;BME280;36409;52.168;20.878;2022-12-18T02:02:55;101968.30;;;-5.47;81.52
50484;BME280;36409;52.168;20.878;2022-12-18T02:05:33;101976.05;;;-5.46;81.72
50484;BME280;36409;52.168;20.878;2022-12-18T02:08:12;101976.05;;;-5.46;81.86
50484;BME280;36409;52.168;20.878;2022-12-18T02:10:48;101978.59;;;-5.46;81.83
50484;BME280;36409;52.168;20.878;2022-12-18T02:13:29;101981.14;;;-5.46;81.76
50484;BME280;36409;52.168;20.878;2022-12-18T02:16:08;101988.77;;;-5.46;81.57
50484;BME280;36409;52.168;20.878;2022-12-18T02:18:47;101995.64;;;-5.45;81.75
50484;BME280;36409;52.168;20.878;2022-12-18T02:21:20;101992.19;;;-5.45;81.77
50484;BME280;36409;52.168;20.878;2022-12-18T02:23:59;101992.19;;;-5.45;81.89
50484;BME280;36409;52.168;20.878;2022-12-18T02:26:37;102002.38;;;-5.45;81.60
50484;BME280;36409;52.168;20.878;2022-12-18T02:29:11;102004.92;;;-5.45;81.87
50484;BME280;36409;52.168;20.878;2022-12-18T02:31:47;102008.38;;;-5.45;81.84
50484;BME280;36409;52.168;20.878;2022-12-18T02:34:21;102008.48;;;-5.43;81.79
50484;BME280;36409;52.168;20.878;2022-12-18T02:36:57;102020.44;;;-5.42;81.60
50484;BME280;36409;52.168;20.878;2022-12-18T02:39:30;102017.13;;;-5.41;81.81
50484;BME280;36409;52.168;20.878;2022-12-18T02:42:04;102021.34;;;-5.41;81.85
50484;BME280;36409;52.168;20.878;2022-12-18T02:44:42;102020.58;;;-5.40;81.61
50484;BME280;36409;52.168;20.878;2022-12-18T02:47:14;102024.77;;;-5.41;81.77
50484;BME280;36409;52.168;20.878;2022-12-18T02:49:52;102026.44;;;-5.41;81.80
50484;BME280;36409;52.168;20.878;2022-12-18T02:52:28;102021.34;;;-5.41;81.95
50484;BME280;36409;52.168;20.878;2022-12-18T02:55:12;102032.40;;;-5.41;81.81
50484;BME280;36409;52.168;20.878;2022-12-18T02:57:49;102041.05;;;-5.39;81.86
50484;BME280;36409;52.168;20.878;2022-12-18T03:00:28;102042.69;;;-5.39;81.65
50484;BME280;36409;52.168;20.878;2022-12-18T03:03:06;102049.56;;;-5.38;81.90
50484;BME280;36409;52.168;20.878;2022-12-18T03:05:47;102053.02;;;-5.38;81.88
50484;BME280;36409;52.168;20.878;2022-12-18T03:08:22;102062.43;;;-5.37;81.71
50484;BME280;36409;52.168;20.878;2022-12-18T03:10:55;102065.84;;;-5.36;81.82
50484;BME280;36409;52.168;20.878;2022-12-18T03:13:29;102065.08;;;-5.35;81.49
50484;BME280;36409;52.168;20.878;2022-12-18T03:16:00;102060.75;;;-5.36;81.99
50484;BME280;36409;52.168;20.878;2022-12-18T03:18:35;102070.94;;;-5.36;81.54
50484;BME280;36409;52.168;20.878;2022-12-18T03:21:10;102072.61;;;-5.37;81.72
50484;BME280;36409;52.168;20.878;2022-12-18T03:23:46;102073.48;;;-5.36;81.51
50484;BME280;36409;52.168;20.878;2022-12-18T03:26:19;102085.45;;;-5.35;81.88
50484;BME280;36409;52.168;20.878;2022-12-18T03:28:55;102084.58;;;-5.36;81.83
50484;BME280;36409;52.168;20.878;2022-12-18T03:31:29;102088.10;;;-5.34;81.83
50484;BME280;36409;52.168;20.878;2022-12-18T03:34:09;102095.63;;;-5.35;82.05
50484;BME280;36409;52.168;20.878;2022-12-18T03:36:43;102096.40;;;-5.36;81.93
50484;BME280;36409;52.168;20.878;2022-12-18T03:39:14;102083.67;;;-5.36;81.78
50484;BME280;36409;52.168;20.878;2022-12-18T03:41:51;102086.22;;;-5.36;81.79
50484;BME280;36409;52.168;20.878;2022-12-18T03:44:31;102086.11;;;-5.38;82.00
50484;BME280;36409;52.168;20.878;2022-12-18T03:47:06;102086.98;;;-5.37;81.69
50484;BME280;36409;52.168;20.878;2022-12-18T03:49:43;102102.14;;;-5.39;81.82
50484;BME280;36409;52.168;20.878;2022-12-18T03:52:20;102091.96;;;-5.39;81.83
50484;BME280;36409;52.168;20.878;2022-12-18T03:54:51;102104.59;;;-5.40;81.73
50484;BME280;36409;52.168;20.878;2022-12-18T03:57:22;102108.77;;;-5.41;81.70
50484;BME280;36409;52.168;20.878;2022-12-18T03:59:58;102108.66;;;-5.43;81.86
50484;BME280;36409;52.168;20.878;2022-12-18T04:02:44;102118.84;;;-5.43;81.71
50484;BME280;36409;52.168;20.878;2022-12-18T04:05:17;102118.08;;;-5.41;81.74
50484;BME280;36409;52.168;20.878;2022-12-18T04:07:48;102128.27;;;-5.41;81.60
50484;BME280;36409;52.168;20.878;2022-12-18T04:10:21;102125.58;;;-5.43;81.82
50484;BME280;36409;52.168;20.878;2022-12-18T04:12:56;102132.20;;;-5.45;81.58
50484;BME280;36409;52.168;20.878;2022-12-18T04:15:26;102135.39;;;-5.48;81.91
50484;BME280;36409;52.168;20.878;2022-12-18T04:17:56;102138.70;;;-5.49;81.38
50484;BME280;36409;52.168;20.878;2022-12-18T04:20:29;102146.13;;;-5.52;81.53
50484;BME280;36409;52.168;20.878;2022-12-18T04:22:59;102149.43;;;-5.53;81.82
50484;BME280;36409;52.168;20.878;2022-12-18T04:25:29;102158.70;;;-5.53;81.27
50484;BME280;36409;52.168;20.878;2022-12-18T04:28:12;102168.77;;;-5.55;81.35
50484;BME280;36409;52.168;20.878;2022-12-18T04:30:42;102165.22;;;-5.57;81.63
50484;BME280;36409;52.168;20.878;2022-12-18T04:33:13;102169.03;;;-5.62;81.36
50484;BME280;36409;52.168;20.878;2022-12-18T04:35:43;102166.01;;;-5.68;81.08
50484;BME280;36409;52.168;20.878;2022-12-18T04:38:15;102174.15;;;-5.72;81.51
50484;BME280;36409;52.168;20.878;2022-12-18T04:40:46;102179.02;;;-5.76;81.51
50484;BME280;36409;52.168;20.878;2022-12-18T04:43:22;102184.49;;;-5.81;81.42
50484;BME280;36409;52.168;20.878;2022-12-18T04:46:00;102183.22;;;-5.86;81.23
50484;BME280;36409;52.168;20.878;2022-12-18T04:49:05;102181.70;;;-5.95;81.16
50484;BME280;36409;52.168;20.878;2022-12-18T04:51:37;102188.09;;;-6.00;81.25
50484;BME280;36409;52.168;20.878;2022-12-18T04:54:06;102184.30;;;-6.05;81.02
50484;BME280;36409;52.168;20.878;2022-12-18T04:56:35;102188.75;;;-6.13;81.04
50484;BME280;36409;52.168;20.878;2022-12-18T04:59:05;102191.55;;;-6.20;80.84
50484;BME280;36409;52.168;20.878;2022-12-18T05:01:38;102193.57;;;-6.26;80.91
50484;BME280;36409;52.168;20.878;2022-12-18T05:04:11;102200.55;;;-6.34;81.24
50484;BME280;36409;52.168;20.878;2022-12-18T05:06:40;102206.77;;;-6.41;81.28
50484;BME280;36409;52.168;20.878;2022-12-18T05:09:09;102219.85;;;-6.46;80.62
50484;BME280;36409;52.168;20.878;2022-12-18T05:11:41;102215.14;;;-6.52;80.60
50484;BME280;36409;52.168;20.878;2022-12-18T05:14:12;102226.47;;;-6.59;80.70
50484;BME280;36409;52.168;20.878;2022-12-18T05:16:44;102226.84;;;-6.64;80.93
50484;BME280;36409;52.168;20.878;2022-12-18T05:19:13;102238.36;;;-6.68;80.82
50484;BME280;36409;52.168;20.878;2022-12-18T05:21:43;102234.83;;;-6.70;81.10
50484;BME280;36409;52.168;20.878;2022-12-18T05:24:13;102241.42;;;-6.72;80.90
50484;BME280;36409;52.168;20.878;2022-12-18T05:26:44;102239.48;;;-6.75;80.83
50484;BME280;36409;52.168;20.878;2022-12-18T05:29:14;102246.86;;;-6.78;81.33
50484;BME280;36409;52.168;20.878;2022-12-18T05:31:43;102251.67;;;-6.81;81.09
50484;BME280;36409;52.168;20.878;2022-12-18T05:34:13;102258.41;;;-6.81;80.93
50484;BME280;36409;52.168;20.878;2022-12-18T05:36:43;102260.16;;;-6.80;81.41
50484;BME280;36409;52.168;20.878;2022-12-18T05:39:18;102259.29;;;-6.81;80.94
50484;BME280;36409;52.168;20.878;2022-12-18T05:41:50;102255.72;;;-6.83;81.12
50484;BME280;36409;52.168;20.878;2022-12-18T05:44:19;102259.17;;;-6.83;80.92
50484;BME280;36409;52.168;20.878;2022-12-18T05:46:48;102258.14;;;-6.85;81.23
50484;BME280;36409;52.168;20.878;2022-12-18T05:49:17;102263.34;;;-6.83;81.34
50484;BME280;36409;52.168;20.878;2022-12-18T05:51:46;102259.02;;;-6.84;80.85
50484;BME280;36409;52.168;20.878;2022-12-18T05:54:15;102261.55;;;-6.84;80.80
50484;BME280;36409;52.168;20.878;2022-12-18T05:56:44;102266.03;;;-6.81;81.34
50484;BME280;36409;52.168;20.878;2022-12-18T05:59:17;102275.56;;;-6.79;81.35
50484;BME280;36409;52.168;20.878;2022-12-18T06:01:46;102277.47;;;-6.76;80.99
50484;BME280;36409;52.168;20.878;2022-12-18T06:04:15;102281.91;;;-6.74;81.55
50484;BME280;36409;52.168;20.878;2022-12-18T06:06:45;102284.60;;;-6.72;81.32
50484;BME280;36409;52.168;20.878;2022-12-18T06:09:14;102291.59;;;-6.70;81.12
50484;BME280;36409;52.168;20.878;2022-12-18T06:11:43;102298.73;;;-6.65;81.42
50484;BME280;36409;52.168;20.878;2022-12-18T06:14:12;102298.22;;;-6.61;81.89
50484;BME280;36409;52.168;20.878;2022-12-18T06:16:44;102306.87;;;-6.59;81.70
50484;BME280;36409;52.168;20.878;2022-12-18T06:19:15;102314.77;;;-6.56;81.45
50484;BME280;36409;52.168;20.878;2022-12-18T06:21:47;102318.34;;;-6.54;81.70
50484;BME280;36409;52.168;20.878;2022-12-18T06:24:17;102324.41;;;-6.52;81.80
50484;BME280;36409;52.168;20.878;2022-12-18T06:26:46;102322.03;;;-6.50;81.84
50484;BME280;36409;52.168;20.878;2022-12-18T06:29:15;102330.69;;;-6.48;81.56
50484;BME280;36409;52.168;20.878;2022-12-18T06:31:44;102330.05;;;-6.46;81.54
50484;BME280;36409;52.168;20.878;2022-12-18T06:34:13;102339.58;;;-6.43;81.63
50484;BME280;36409;52.168;20.878;2022-12-18T06:36:44;102345.69;;;-6.41;81.55
50484;BME280;36409;52.168;20.878;2022-12-18T06:39:13;102345.05;;;-6.39;81.41
50484;BME280;36409;52.168;20.878;2022-12-18T06:41:43;102350.41;;;-6.36;81.32
50484;BME280;36409;52.168;20.878;2022-12-18T06:44:16;102357.40;;;-6.33;81.90
50484;BME280;36409;52.168;20.878;2022-12-18T06:46:45;102367.84;;;-6.30;81.45
50484;BME280;36409;52.168;20.878;2022-12-18T06:49:15;102360.48;;;-6.27;81.75
50484;BME280;36409;52.168;20.878;2022-12-18T06:51:44;102371.92;;;-6.22;81.72
50484;BME280;36409;52.168;20.878;2022-12-18T06:54:15;102370.69;;;-6.16;81.90
50484;BME280;36409;52.168;20.878;2022-12-18T06:56:45;102381.09;;;-6.13;81.84
50484;BME280;36409;52.168;20.878;2022-12-18T06:59:14;102383.27;;;-6.08;81.66
50484;BME280;36409;52.168;20.878;2022-12-18T07:01:45;102382.78;;;-6.03;81.70
50484;BME280;36409;52.168;20.878;2022-12-18T07:04:15;102382.30;;;-5.99;81.69
50484;BME280;36409;52.168;20.878;2022-12-18T07:06:44;102384.29;;;-5.95;81.43
50484;BME280;36409;52.168;20.878;2022-12-18T07:09:15;102386.34;;;-5.91;81.60
50484;BME280;36409;52.168;20.878;2022-12-18T07:11:44;102388.40;;;-5.87;81.44
50484;BME280;36409;52.168;20.878;2022-12-18T07:14:13;102390.42;;;-5.83;81.69
50484;BME280;36409;52.168;20.878;2022-12-18T07:16:44;102401.62;;;-5.81;81.64
50484;BME280;36409;52.168;20.878;2022-12-18T07:19:13;102401.13;;;-5.77;81.70
50484;BME280;36409;52.168;20.878;2022-12-18T07:21:43;102408.12;;;-5.74;81.49
50484;BME280;36409;52.168;20.878;2022-12-18T07:24:14;102405.70;;;-5.72;81.61
50484;BME280;36409;52.168;20.878;2022-12-18T07:26:46;102401.78;;;-5.69;81.63
50484;BME280;36409;52.168;20.878;2022-12-18T07:29:18;102403.69;;;-5.66;81.51
50484;BME280;36409;52.168;20.878;2022-12-18T07:31:50;102409.81;;;-5.64;81.54
50484;BME280;36409;52.168;20.878;2022-12-18T07:34:19;102414.14;;;-5.63;81.78
50484;BME280;36409;52.168;20.878;2022-12-18T07:36:48;102428.01;;;-5.60;81.54
50484;BME280;36409;52.168;20.878;2022-12-18T07:39:17;102437.66;;;-5.55;81.90
50484;BME280;36409;52.168;20.878;2022-12-18T07:41:46;102430.30;;;-5.52;81.63
50484;BME280;36409;52.168;20.878;2022-12-18T07:44:35;102438.20;;;-5.49;81.32
50484;BME280;36409;52.168;20.878;2022-12-18T07:47:05;102435.01;;;-5.47;81.62
50484;BME280;36409;52.168;20.878;2022-12-18T07:49:40;102446.48;;;-5.41;81.44
50484;BME280;36409;52.168;20.878;2022-12-18T07:52:08;102447.36;;;-5.41;81.71
50484;BME280;36409;52.168;20.878;2022-12-18T07:54:41;102447.48;;;-5.39;81.64
50484;BME280;36409;52.168;20.878;2022-12-18T07:57:15;102452.84;;;-5.36;81.41
50484;BME280;36409;52.168;20.878;2022-12-18T08:00:07;102453.37;;;-5.30;81.84
50484;BME280;36409;52.168;20.878;2022-12-18T08:02:39;102455.53;;;-5.24;81.76
50484;BME280;36409;52.168;20.878;2022-12-18T08:05:10;102462.00;;;-5.18;81.71
50484;BME280;36409;52.168;20.878;2022-12-18T08:07:39;102477.81;;;-5.12;81.64
50484;BME280;36409;52.168;20.878;2022-12-18T08:10:09;102477.31;;;-5.07;81.79
50484;BME280;36409;52.168;20.878;2022-12-18T08:12:39;102471.84;;;-5.02;81.66
50484;BME280;36409;52.168;20.878;2022-12-18T08:15:09;102478.95;;;-4.98;81.83
50484;BME280;36409;52.168;20.878;2022-12-18T08:17:43;102489.52;;;-4.93;81.61
50484;BME280;36409;52.168;20.878;2022-12-18T08:20:13;102501.64;;;-4.90;81.75
50484;BME280;36409;52.168;20.878;2022-12-18T08:22:43;102491.56;;;-4.89;81.46
50484;BME280;36409;52.168;20.878;2022-12-18T08:25:13;102498.71;;;-4.85;81.52
50484;BME280;36409;52.168;20.878;2022-12-18T08:27:42;102509.13;;;-4.82;81.52
50484;BME280;36409;52.168;20.878;2022-12-18T08:30:13;102507.50;;;-4.81;81.44
50484;BME280;36409;52.168;20.878;2022-12-18T08:32:43;102507.72;;;-4.78;81.48
50484;BME280;36409;52.168;20.878;2022-12-18T08:35:13;102507.98;;;-4.75;81.56
50484;BME280;36409;52.168;20.878;2022-12-18T08:37:47;102512.58;;;-4.71;81.41
50484;BME280;36409;52.168;20.878;2022-12-18T08:40:16;102507.86;;;-4.66;81.62
50484;BME280;36409;52.168;20.878;2022-12-18T08:42:45;102509.64;;;-4.65;81.47
50484;BME280;36409;52.168;20.878;2022-12-18T08:45:32;102513.07;;;-4.65;81.46
50484;BME280;36409;52.168;20.878;2022-12-18T08:48:03;102512.30;;;-4.63;81.24
50484;BME280;36409;52.168;20.878;2022-12-18T08:50:39;102518.81;;;-4.67;81.17
50484;BME280;36409;52.168;20.878;2022-12-18T08:53:12;102517.14;;;-4.67;81.10
50484;BME280;36409;52.168;20.878;2022-12-18T08:55:41;102527.23;;;-4.68;81.35
50484;BME280;36409;52.168;20.878;2022-12-18T08:58:17;102525.70;;;-4.66;81.23
50484;BME280;36409;52.168;20.878;2022-12-18T09:00:47;102529.77;;;-4.58;81.61
50484;BME280;36409;52.168;20.878;2022-12-18T09:03:17;102531.42;;;-4.48;81.63
50484;BME280;36409;52.168;20.878;2022-12-18T09:05:46;102528.33;;;-4.44;81.59
50484;BME280;36409;52.168;20.878;2022-12-18T09:08:15;102540.58;;;-4.40;81.29
50484;BME280;36409;52.168;20.878;2022-12-18T09:10:45;102544.26;;;-4.36;81.41
50484;BME280;36409;52.168;20.878;2022-12-18T09:13:15;102544.52;;;-4.33;81.20
50484;BME280;36409;52.168;20.878;2022-12-18T09:15:48;102547.18;;;-4.31;81.30
50484;BME280;36409;52.168;20.878;2022-12-18T09:18:24;102546.93;;;-4.24;81.28
50484;BME280;36409;52.168;20.878;2022-12-18T09:20:53;102551.64;;;-4.19;81.42
50484;BME280;36409;52.168;20.878;2022-12-18T09:23:22;102552.77;;;-4.15;81.47
50484;BME280;36409;52.168;20.878;2022-12-18T09:25:59;102551.09;;;-4.14;81.42
50484;BME280;36409;52.168;20.878;2022-12-18T09:28:28;102551.09;;;-4.14;81.40
50484;BME280;36409;52.168;20.878;2022-12-18T09:30:57;102550.59;;;-4.10;81.43
50484;BME280;36409;52.168;20.878;2022-12-18T09:33:26;102555.41;;;-4.03;81.48
50484;BME280;36409;52.168;20.878;2022-12-18T09:35:55;102554.38;;;-3.95;81.51
50484;BME280;36409;52.168;20.878;2022-12-18T09:38:24;102560.72;;;-3.90;81.60
50484;BME280;36409;52.168;20.878;2022-12-18T09:40:55;102554.20;;;-3.86;81.38
50484;BME280;36409;52.168;20.878;2022-12-18T09:43:33;102553.58;;;-3.83;81.31
50484;BME280;36409;52.168;20.878;2022-12-18T09:46:15;102555.98;;;-3.85;81.33
50484;BME280;36409;52.168;20.878;2022-12-18T09:48:49;102558.13;;;-3.79;81.31
50484;BME280;36409;52.168;20.878;2022-12-18T09:51:26;102555.83;;;-3.76;81.20
50484;BME280;36409;52.168;20.878;2022-12-18T09:53:58;102561.95;;;-3.74;81.01
50484;BME280;36409;52.168;20.878;2022-12-18T09:56:31;102567.28;;;-3.71;81.11
50484;BME280;36409;52.168;20.878;2022-12-18T09:59:01;102568.08;;;-3.72;81.47
50484;BME280;36409;52.168;20.878;2022-12-18T10:01:35;102563.19;;;-3.69;81.11
50484;BME280;36409;52.168;20.878;2022-12-18T10:04:13;102567.48;;;-3.58;81.23
50484;BME280;36409;52.168;20.878;2022-12-18T10:06:51;102570.13;;;-3.46;81.26
50484;BME280;36409;52.168;20.878;2022-12-18T10:09:28;102585.14;;;-3.38;81.17
50484;BME280;36409;52.168;20.878;2022-12-18T10:12:07;102580.03;;;-3.38;81.25
50484;BME280;36409;52.168;20.878;2022-12-18T10:14:46;102577.89;;;-3.44;80.91
50484;BME280;36409;52.168;20.878;2022-12-18T10:17:26;102584.33;;;-3.49;80.88
50484;BME280;36409;52.168;20.878;2022-12-18T10:19:59;102577.78;;;-3.46;80.79
50484;BME280;36409;52.168;20.878;2022-12-18T10:22:49;102573.80;;;-3.42;80.81
50484;BME280;36409;52.168;20.878;2022-12-18T10:25:26;102575.17;;;-3.35;81.06
50484;BME280;36409;52.168;20.878;2022-12-18T10:28:00;102572.06;;;-3.31;80.88
50484;BME280;36409;52.168;20.878;2022-12-18T10:30:48;102575.01;;;-3.27;80.92
50484;BME280;36409;52.168;20.878;2022-12-18T10:33:19;102573.99;;;-3.29;80.63
50484;BME280;36409;52.168;20.878;2022-12-18T10:35:50;102574.41;;;-3.34;80.54
50484;BME280;36409;52.168;20.878;2022-12-18T10:38:25;102574.05;;;-3.39;80.68
50484;BME280;36409;52.168;20.878;2022-12-18T10:40:56;102572.73;;;-3.34;80.76
50484;BME280;36409;52.168;20.878;2022-12-18T10:43:35;102576.55;;;-3.29;80.74
50484;BME280;36409;52.168;20.878;2022-12-18T10:46:15;102569.66;;;-3.30;80.56
50484;BME280;36409;52.168;20.878;2022-12-18T10:48:53;102566.54;;;-3.26;80.70
50484;BME280;36409;52.168;20.878;2022-12-18T10:51:27;102570.05;;;-3.13;80.36
50484;BME280;36409;52.168;20.878;2022-12-18T10:54:01;102569.27;;;-3.12;79.97
50484;BME280;36409;52.168;20.878;2022-12-18T10:56:35;102571.06;;;-3.11;80.53
50484;BME280;36409;52.168;20.878;2022-12-18T10:59:07;102581.38;;;-3.10;80.29
50484;BME280;36409;52.168;20.878;2022-12-18T11:01:55;102572.08;;;-3.09;80.66
50484;BME280;36409;52.168;20.878;2022-12-18T11:04:31;102575.22;;;-3.01;80.72
50484;BME280;36409;52.168;20.878;2022-12-18T11:07:04;102578.66;;;-3.01;80.46
50484;BME280;36409;52.168;20.878;2022-12-18T11:09:34;102576.52;;;-3.06;80.30
50484;BME280;36409;52.168;20.878;2022-12-18T11:12:08;102572.95;;;-3.08;80.03
50484;BME280;36409;52.168;20.878;2022-12-18T11:14:46;102565.53;;;-3.05;80.50
50484;BME280;36409;52.168;20.878;2022-12-18T11:17:20;102569.87;;;-3.04;80.12
50484;BME280;36409;52.168;20.878;2022-12-18T11:19:55;102563.74;;;-3.06;80.19
50484;BME280;36409;52.168;20.878;2022-12-18T11:22:26;102573.44;;;-3.02;80.29
50484;BME280;36409;52.168;20.878;2022-12-18T11:24:59;102578.47;;;-2.92;80.42
50484;BME280;36409;52.168;20.878;2022-12-18T11:27:50;102577.73;;;-2.79;80.60
50484;BME280;36409;52.168;20.878;2022-12-18T11:30:25;102580.20;;;-2.69;80.81
50484;BME280;36409;52.168;20.878;2022-12-18T11:32:57;102586.23;;;-2.56;80.54
50484;BME280;36409;52.168;20.878;2022-12-18T11:35:44;102588.27;;;-2.40;81.06
50484;BME280;36409;52.168;20.878;2022-12-18T11:38:23;102580.49;;;-2.30;80.68
50484;BME280;36409;52.168;20.878;2022-12-18T11:41:00;102579.95;;;-2.26;80.84
50484;BME280;36409;52.168;20.878;2022-12-18T11:43:35;102582.84;;;-2.21;80.48
50484;BME280;36409;52.168;20.878;2022-12-18T11:46:13;102574.39;;;-2.20;80.34
50484;BME280;36409;52.168;20.878;2022-12-18T11:48:52;102568.27;;;-2.22;80.72
50484;BME280;36409;52.168;20.878;2022-12-18T11:51:26;102575.75;;;-2.25;79.71
50484;BME280;36409;52.168;20.878;2022-12-18T11:54:00;102576.72;;;-2.35;79.46
50484;BME280;36409;52.168;20.878;2022-12-18T11:56:35;102581.94;;;-2.45;79.55
50484;BME280;36409;52.168;20.878;2022-12-18T11:59:09;102586.48;;;-2.53;79.48
50484;BME280;36409;52.168;20.878;2022-12-18T12:01:50;102591.59;;;-2.53;79.52
50484;BME280;36409;52.168;20.878;2022-12-18T12:04:40;102584.50;;;-2.45;80.29
50484;BME280;36409;52.168;20.878;2022-12-18T12:07:23;102593.62;;;-2.49;79.95
50484;BME280;36409;52.168;20.878;2022-12-18T12:09:59;102601.16;;;-2.51;80.27
50484;BME280;36409;52.168;20.878;2022-12-18T12:12:38;102594.25;;;-2.52;80.12
50484;BME280;36409;52.168;20.878;2022-12-18T12:15:28;102597.48;;;-2.54;80.47
50484;BME280;36409;52.168;20.878;2022-12-18T12:18:16;102589.36;;;-2.60;80.03
50484;BME280;36409;52.168;20.878;2022-12-18T12:20:52;102589.66;;;-2.68;80.01
50484;BME280;36409;52.168;20.878;2022-12-18T12:23:39;102596.88;;;-2.74;79.89
50484;BME280;36409;52.168;20.878;2022-12-18T12:26:22;102601.75;;;-2.77;80.02
50484;BME280;36409;52.168;20.878;2022-12-18T12:29:04;102603.61;;;-2.86;79.72
50484;BME280;36409;52.168;20.878;2022-12-18T12:31:57;102611.70;;;-2.92;79.75
50484;BME280;36409;52.168;20.878;2022-12-18T12:34:36;102618.11;;;-2.97;79.64
50484;BME280;36409;52.168;20.878;2022-12-18T12:37:19;102625.43;;;-3.02;79.31
50484;BME280;36409;52.168;20.878;2022-12-18T12:39:51;102628.95;;;-3.12;79.38
50484;BME280;36409;52.168;20.878;2022-12-18T12:42:30;102629.89;;;-3.21;79.21
50484;BME280;36409;52.168;20.878;2022-12-18T12:45:28;102624.17;;;-3.29;79.44
50484;BME280;36409;52.168;20.878;2022-12-18T12:48:02;102632.39;;;-3.33;79.52
50484;BME280;36409;52.168;20.878;2022-12-18T12:50:57;102631.48;;;-3.34;79.27
50484;BME280;36409;52.168;20.878;2022-12-18T12:53:36;102639.03;;;-3.35;79.78
50484;BME280;36409;52.168;20.878;2022-12-18T12:56:10;102647.58;;;-3.35;79.92
50484;BME280;36409;52.168;20.878;2022-12-18T12:58:49;102654.36;;;-3.35;79.91
50484;BME280;36409;52.168;20.878;2022-12-18T13:01:28;102664.33;;;-3.38;79.80
50484;BME280;36409;52.168;20.878;2022-12-18T13:04:15;102668.31;;;-3.42;79.87
50484;BME280;36409;52.168;20.878;2022-12-18T13:06:53;102669.37;;;-3.50;79.66
50484;BME280;36409;52.168;20.878;2022-12-18T13:09:25;102664.66;;;-3.56;79.90
50484;BME280;36409;52.168;20.878;2022-12-18T13:12:05;102666.19;;;-3.58;79.98
50484;BME280;36409;52.168;20.878;2022-12-18T13:15:19;102667.72;;;-3.60;79.95
50484;BME280;36409;52.168;20.878;2022-12-18T13:20:53;102678.84;;;-3.70;79.83